Terminal Aerodrome Forecast
Issued by NWS Sioux Falls, SD

Home | Current Version | Previous Version | Text Only | Print | Product List | Glossary Off
Versions: 1 2 3 4 5 6 7 8 9 10 11 12

000
FTUS43 KFSD 261723
TAFHON
TAF
KHON 261723Z 2618/2718 31015G24KT P6SM FEW250
     FM262300 32007KT P6SM FEW250
     FM270300 VRB03KT P6SM SCT100
     FM270900 VRB03KT 5SM BR SCT100
     FM271500 15007KT P6SM SCT100=

USA.gov is the U.S. government's official web portal to all federal, state and local government web resources and services.